createdAt,value
2019-01-15T00:03:53.469Z,5.20
2019-01-15T00:08:57.270Z,6.00
2019-01-15T00:14:01.101Z,7.00
2019-01-15T00:19:04.986Z,5.20
2019-01-15T00:24:08.768Z,4.00
2019-01-15T00:29:12.558Z,3.00
2019-01-15T00:34:16.416Z,6.75
2019-01-15T00:39:20.323Z,6.50
2019-01-15T00:44:24.157Z,3.00
2019-01-15T00:49:28.074Z,4.80
2019-01-15T00:54:31.908Z,4.25
2019-01-15T00:59:35.714Z,4.75
2019-01-15T01:04:39.584Z,3.75
2019-01-15T01:09:43.425Z,2.80
2019-01-15T01:14:47.306Z,2.00
2019-01-15T01:19:51.092Z,3.25
2019-01-15T01:24:54.911Z,3.00
2019-01-15T01:29:58.766Z,5.00
2019-01-15T01:35:02.642Z,3.50
2019-01-15T01:40:07.843Z,4.80
2019-01-15T01:45:12.384Z,3.20
2019-01-15T01:50:16.202Z,3.25
2019-01-15T01:55:20.028Z,7.00
2019-01-15T02:00:24.038Z,3.40
2019-01-15T02:05:27.823Z,4.40
2019-01-15T02:10:31.650Z,3.00
2019-01-15T02:15:35.469Z,2.50
2019-01-15T02:20:39.252Z,3.50
2019-01-15T02:25:43.023Z,4.60
2019-01-15T02:30:47.071Z,2.00
2019-01-15T02:35:50.870Z,3.50
2019-01-15T02:40:54.660Z,4.00
2019-01-15T02:45:58.568Z,3.25
2019-01-15T02:51:02.354Z,3.00
2019-01-15T02:56:06.131Z,3.00
2019-01-15T03:01:09.948Z,3.00
2019-01-15T03:06:13.877Z,4.00
2019-01-15T03:11:17.655Z,2.00
2019-01-15T03:16:21.518Z,3.00
2019-01-15T03:21:26.160Z,1.75
2019-01-15T03:26:30.158Z,3.75
2019-01-15T03:31:33.943Z,2.00
2019-01-15T03:36:37.856Z,3.80
2019-01-15T03:41:41.644Z,3.00
2019-01-15T03:46:45.459Z,2.75
2019-01-15T03:51:49.244Z,2.50
2019-01-15T03:56:53.498Z,2.00
2019-01-15T04:01:57.286Z,3.00
2019-01-15T04:07:01.276Z,2.25
2019-01-15T04:12:05.063Z,3.40
2019-01-15T04:17:08.898Z,3.00
2019-01-15T04:22:12.744Z,3.00
2019-01-15T04:27:16.561Z,3.00
2019-01-15T04:32:20.329Z,3.80
2019-01-15T04:37:24.210Z,2.00
2019-01-15T04:42:28.033Z,1.60
2019-01-15T04:47:31.971Z,3.25
2019-01-15T04:52:36.381Z,2.50
2019-01-15T04:57:40.423Z,2.00
2019-01-15T05:02:44.376Z,1.75
2019-01-15T05:07:48.273Z,2.25
2019-01-15T05:12:52.049Z,4.50
2019-01-15T05:17:55.838Z,2.40
2019-01-15T05:22:59.632Z,4.00
2019-01-15T05:28:03.409Z,1.25
2019-01-15T05:33:07.296Z,2.20
2019-01-15T05:38:11.254Z,3.00
2019-01-15T05:43:16.883Z,2.00
2019-01-15T05:48:24.606Z,2.50
2019-01-15T05:53:28.371Z,2.25
2019-01-15T05:58:32.174Z,2.00
2019-01-15T06:03:36.072Z,2.50
2019-01-15T06:08:39.941Z,2.00
2019-01-15T06:13:43.863Z,3.00
2019-01-15T06:18:47.738Z,1.50
2019-01-15T06:23:51.523Z,2.50
2019-01-15T06:28:55.483Z,1.75
2019-01-15T06:33:59.348Z,2.60
2019-01-15T06:39:04.297Z,3.00
2019-01-15T06:44:08.108Z,2.00
2019-01-15T06:49:11.919Z,1.25
2019-01-15T06:54:15.731Z,2.00
2019-01-15T06:59:19.529Z,2.25
2019-01-15T07:04:23.384Z,2.00
2019-01-15T07:09:27.245Z,2.00
2019-01-15T07:14:31.043Z,2.00
2019-01-15T07:19:34.829Z,1.60
2019-01-15T07:24:38.667Z,2.75
2019-01-15T07:29:42.476Z,1.50
2019-01-15T07:34:46.278Z,3.40
2019-01-15T07:39:50.156Z,1.20
2019-01-15T07:44:54.015Z,2.50
2019-01-15T07:49:57.835Z,2.00
2019-01-15T07:55:01.632Z,1.75
2019-01-15T08:00:06.939Z,1.60
2019-01-15T08:05:11.185Z,2.33
2019-01-15T08:10:15.628Z,4.40
2019-01-15T08:15:21.286Z,3.60
2019-01-15T08:20:25.079Z,1.75
2019-01-15T08:25:28.898Z,2.50
2019-01-15T08:30:35.122Z,1.40
2019-01-15T08:35:39.007Z,4.60
2019-01-15T08:40:42.843Z,4.60
2019-01-15T08:45:46.643Z,2.00
2019-01-15T08:50:52.471Z,1.75
2019-01-15T08:55:58.060Z,1.00
2019-01-15T09:01:01.837Z,2.00
2019-01-15T09:06:05.615Z,3.40
2019-01-15T09:11:09.386Z,1.50
2019-01-15T09:16:13.189Z,2.00
2019-01-15T09:21:17.056Z,2.20
2019-01-15T09:26:20.914Z,1.60
2019-01-15T09:31:24.699Z,1.50
2019-01-15T09:36:28.498Z,2.00
2019-01-15T09:41:32.634Z,3.00
2019-01-15T09:46:36.444Z,2.00
2019-01-15T09:51:40.220Z,2.00
2019-01-15T09:56:44.004Z,2.00
2019-01-15T10:01:47.827Z,2.50
2019-01-15T10:06:51.666Z,1.20
2019-01-15T10:11:55.530Z,1.00
2019-01-15T10:16:59.315Z,1.50
2019-01-15T10:22:03.173Z,1.00
2019-01-15T10:27:07.731Z,1.20
2019-01-15T10:32:42.338Z,1.00
2019-01-15T10:37:46.134Z,2.00
2019-01-15T10:42:49.922Z,1.00
2019-01-15T10:47:53.731Z,2.00
2019-01-15T10:52:57.525Z,2.00
2019-01-15T10:58:01.350Z,2.00
2019-01-15T11:03:05.152Z,1.00
2019-01-15T11:08:08.996Z,1.00
2019-01-15T11:13:12.853Z,1.25
2019-01-15T11:18:16.739Z,2.00
2019-01-15T11:23:20.560Z,2.00
2019-01-15T11:28:24.527Z,2.00
2019-01-15T11:33:28.402Z,1.50
2019-01-15T11:38:32.229Z,2.00
2019-01-15T11:43:36.105Z,1.20
2019-01-15T11:48:39.953Z,2.75
2019-01-15T11:53:43.845Z,1.50
2019-01-15T11:58:47.912Z,1.00
2019-01-15T12:04:02.550Z,1.00
2019-01-15T12:09:32.129Z,2.00
2019-01-15T12:14:57.776Z,2.00
2019-01-15T12:20:15.084Z,6.00
2019-01-15T12:25:53.467Z,9.00
2019-01-15T12:31:22.267Z,6.00
2019-01-15T12:36:39.559Z,7.25
2019-01-15T12:42:02.342Z,6.00
2019-01-15T12:47:24.249Z,5.75
2019-01-15T12:52:45.850Z,4.25
2019-01-15T12:58:07.323Z,6.00
2019-01-15T13:03:29.040Z,6.00
2019-01-15T13:08:54.200Z,6.50
2019-01-15T13:14:05.387Z,6.40
2019-01-15T13:19:26.878Z,6.00
2019-01-15T13:24:58.759Z,6.00
2019-01-15T13:30:10.229Z,6.00
2019-01-15T13:35:25.089Z,4.00
2019-01-15T13:40:50.205Z,6.20
2019-01-15T13:46:08.974Z,6.00
2019-01-15T13:51:30.729Z,4.25
2019-01-15T13:56:52.281Z,3.00
2019-01-15T14:02:23.825Z,3.20
2019-01-15T14:07:37.900Z,4.00
2019-01-15T14:12:59.535Z,6.00
2019-01-15T14:18:20.937Z,4.00
2019-01-15T14:23:43.724Z,4.75
2019-01-15T14:28:54.932Z,2.00
2019-01-15T14:34:23.243Z,2.00
2019-01-15T14:39:48.780Z,3.00
2019-01-15T14:45:15.630Z,3.50
2019-01-15T14:50:41.453Z,6.50
2019-01-15T14:56:05.602Z,7.00
2019-01-15T15:01:43.549Z,7.00
2019-01-15T15:06:59.446Z,9.00
2019-01-15T15:12:21.049Z,8.40
2019-01-15T15:17:39.394Z,4.00
2019-01-15T15:23:00.632Z,2.50
2019-01-15T15:28:32.324Z,3.00
2019-01-15T15:33:53.939Z,4.60
2019-01-15T15:39:13.496Z,3.80
2019-01-15T15:44:30.759Z,5.00
2019-01-15T15:49:54.183Z,3.00
2019-01-15T15:55:16.216Z,2.50
2019-01-15T16:00:37.798Z,3.00
2019-01-15T16:06:06.398Z,5.50
2019-01-15T16:11:32.189Z,4.20
2019-01-15T16:17:00.738Z,3.00
2019-01-15T16:22:22.176Z,3.60
2019-01-15T16:27:44.596Z,4.60
2019-01-15T16:33:05.986Z,3.00
2019-01-15T16:38:37.598Z,3.00
2019-01-15T16:44:12.736Z,3.00
2019-01-15T16:49:31.320Z,4.00
2019-01-15T16:54:53.027Z,3.75
2019-01-15T17:00:14.739Z,2.00
2019-01-15T17:05:42.219Z,3.80
2019-01-15T17:11:08.043Z,2.00
2019-01-15T17:16:34.698Z,2.80
2019-01-15T17:22:00.279Z,3.50
2019-01-15T17:27:23.067Z,5.40
2019-01-15T17:32:39.098Z,3.00
2019-01-15T17:37:53.362Z,3.80
2019-01-15T17:43:16.117Z,3.20
2019-01-15T17:48:40.011Z,5.75
2019-01-15T17:54:02.773Z,4.00
2019-01-15T17:59:24.256Z,4.00
2019-01-15T18:04:41.759Z,4.00
2019-01-15T18:10:04.365Z,3.00
2019-01-15T18:15:29.561Z,3.00
2019-01-15T18:21:04.663Z,3.20
2019-01-15T18:26:39.943Z,3.00
2019-01-15T18:31:56.196Z,3.25
2019-01-15T18:37:28.491Z,3.00
2019-01-15T18:42:50.029Z,2.00
2019-01-15T18:48:12.770Z,3.60
2019-01-15T18:53:37.919Z,3.00
2019-01-15T18:58:52.602Z,2.00
2019-01-15T19:04:30.552Z,3.00
2019-01-15T19:09:57.052Z,3.00
2019-01-15T19:15:18.514Z,2.75
2019-01-15T19:20:30.803Z,2.25
2019-01-15T19:26:02.472Z,5.40
2019-01-15T19:31:31.102Z,2.75
2019-01-15T19:36:53.275Z,3.40
2019-01-15T19:42:07.120Z,2.00
2019-01-15T19:47:22.633Z,2.00
2019-01-15T19:52:40.169Z,3.00
2019-01-15T19:58:12.106Z,2.60
2019-01-15T20:03:33.753Z,2.00
2019-01-15T20:09:02.338Z,1.75
2019-01-15T20:14:29.150Z,3.00
2019-01-15T20:19:50.753Z,2.00
2019-01-15T20:25:12.629Z,2.25
2019-01-15T20:30:44.457Z,2.50
2019-01-15T20:36:06.239Z,2.00
2019-01-15T20:41:27.968Z,2.00
2019-01-15T20:46:49.709Z,2.00
2019-01-15T20:52:18.356Z,2.00
2019-01-15T20:57:40.059Z,3.00
2019-01-15T21:03:03.280Z,2.00
2019-01-15T21:08:17.953Z,2.00
2019-01-15T21:13:39.621Z,2.00
2019-01-15T21:19:14.678Z,1.50
2019-01-15T21:24:40.212Z,1.50
2019-01-15T21:30:06.038Z,2.20
2019-01-15T21:35:33.178Z,2.00
2019-01-15T21:40:48.911Z,3.50
2019-01-15T21:46:17.676Z,2.00
2019-01-15T21:51:39.445Z,1.50
2019-01-15T21:57:01.139Z,2.00
2019-01-15T22:02:35.731Z,2.00
2019-01-15T22:07:58.498Z,2.00
2019-01-15T22:13:27.380Z,2.00
2019-01-15T22:19:05.362Z,1.00
2019-01-15T22:24:31.135Z,1.00
2019-01-15T22:30:00.102Z,2.60
2019-01-15T22:35:23.855Z,3.00
2019-01-15T22:40:52.155Z,2.00
2019-01-15T22:46:27.262Z,1.40
2019-01-15T22:51:49.135Z,2.00
2019-01-15T22:57:00.146Z,2.00
2019-01-15T23:02:29.893Z,2.00
2019-01-15T23:07:56.004Z,1.20
2019-01-15T23:13:30.876Z,2.00
2019-01-15T23:18:45.173Z,1.50
2019-01-15T23:24:01.404Z,1.00
2019-01-15T23:29:16.256Z,2.00
2019-01-15T23:34:37.954Z,3.00
2019-01-15T23:40:06.741Z,1.50
2019-01-15T23:45:26.000Z,2.00
2019-01-15T23:50:49.154Z,1.25
2019-01-15T23:56:10.758Z,3.50
